createdAt,value
2022-09-21T00:01:15.352Z,3.58
2022-09-21T00:03:43.300Z,2.22
2022-09-21T00:06:15.745Z,3.28
2022-09-21T00:08:43.488Z,3.00
2022-09-21T00:11:14.875Z,3.78
2022-09-21T00:13:44.286Z,2.78
2022-09-21T00:16:11.393Z,2.28
2022-09-21T00:18:38.534Z,3.33
2022-09-21T00:21:11.188Z,5.25
2022-09-21T00:23:38.498Z,3.97
2022-09-21T00:26:06.539Z,2.58
2022-09-21T00:28:34.100Z,2.10
2022-09-21T00:31:02.768Z,3.20
2022-09-21T00:33:29.859Z,3.38
2022-09-21T00:36:03.150Z,3.03
2022-09-21T00:38:30.657Z,2.70
2022-09-21T00:40:58.122Z,3.53
2022-09-21T00:43:25.494Z,2.67
2022-09-21T00:46:00.267Z,4.90
2022-09-21T00:48:28.587Z,4.50
2022-09-21T00:50:58.768Z,2.90
2022-09-21T00:53:28.179Z,5.75
2022-09-21T00:55:56.609Z,4.20
2022-09-21T00:58:31.032Z,4.78
2022-09-21T01:01:00.111Z,2.53
2022-09-21T01:03:29.123Z,3.22
2022-09-21T01:05:56.692Z,2.67
2022-09-21T01:08:26.095Z,5.50
2022-09-21T01:11:25.644Z,1.90
2022-09-21T01:14:21.808Z,3.85
2022-09-21T01:17:02.437Z,3.33
2022-09-21T01:19:48.014Z,2.72
2022-09-21T01:22:32.183Z,2.30
2022-09-21T01:25:14.371Z,4.43
2022-09-21T01:28:17.928Z,2.92
2022-09-21T01:30:48.904Z,4.70
2022-09-21T01:33:26.814Z,3.05
2022-09-21T01:36:01.242Z,6.65
2022-09-21T01:38:32.133Z,3.30
2022-09-21T01:41:02.626Z,2.25
2022-09-21T01:43:36.914Z,3.97
2022-09-21T01:46:05.771Z,3.10
2022-09-21T01:48:35.931Z,3.08
2022-09-21T01:51:06.390Z,6.07
2022-09-21T01:53:37.625Z,2.72
2022-09-21T01:56:25.907Z,2.65
2022-09-21T01:59:01.491Z,3.58
2022-09-21T02:03:59.804Z,3.42
2022-09-21T02:06:28.843Z,3.85
2022-09-21T02:08:56.215Z,6.18
2022-09-21T02:11:23.710Z,3.30
2022-09-21T02:13:52.946Z,3.05
2022-09-21T02:16:31.795Z,3.15
2022-09-21T02:19:27.200Z,5.57
2022-09-21T02:21:54.141Z,3.10
2022-09-21T02:24:51.673Z,3.05
2022-09-21T02:27:42.983Z,8.77
2022-09-21T02:30:19.396Z,8.40
2022-09-21T02:33:02.017Z,6.28
2022-09-21T02:35:43.489Z,4.88
2022-09-21T02:38:17.595Z,5.20
2022-09-21T02:40:54.102Z,5.38
2022-09-21T02:43:27.722Z,6.85
2022-09-21T02:45:59.576Z,4.90
2022-09-21T02:48:33.567Z,3.78
2022-09-21T02:51:09.670Z,4.82
2022-09-21T02:53:38.246Z,5.40
2022-09-21T02:56:07.305Z,4.68
2022-09-21T02:58:43.655Z,3.88
2022-09-21T03:01:12.373Z,3.97
2022-09-21T03:03:39.409Z,8.70
2022-09-21T03:06:06.724Z,4.88
2022-09-21T03:08:33.783Z,7.55
2022-09-21T03:11:00.989Z,6.80
2022-09-21T03:13:28.057Z,5.78
2022-09-21T03:16:07.112Z,8.07
2022-09-21T03:18:34.990Z,5.97
2022-09-21T03:21:03.267Z,8.07
2022-09-21T03:23:30.537Z,6.03
2022-09-21T03:25:57.608Z,6.15
2022-09-21T03:28:24.761Z,6.68
2022-09-21T03:30:52.694Z,3.88
2022-09-21T03:33:20.561Z,6.45
2022-09-21T03:35:51.250Z,5.18
2022-09-21T03:38:19.066Z,15.93
2022-09-21T03:40:49.686Z,5.03
2022-09-21T03:43:17.118Z,5.60
2022-09-21T03:45:44.463Z,5.10
2022-09-21T03:48:15.749Z,7.45
2022-09-21T03:50:42.898Z,4.28
2022-09-21T03:53:10.761Z,3.42
2022-09-21T03:55:38.237Z,4.22
2022-09-21T03:58:05.485Z,5.30
2022-09-21T04:00:33.104Z,6.05
2022-09-21T04:03:00.395Z,3.70
2022-09-21T04:05:27.909Z,4.47
2022-09-21T04:07:56.459Z,4.50
2022-09-21T04:10:27.026Z,4.03
2022-09-21T04:12:57.256Z,4.85
2022-09-21T04:15:24.457Z,6.53
2022-09-21T04:17:52.242Z,3.50
2022-09-21T04:20:20.562Z,4.07
2022-09-21T04:22:47.860Z,4.22
2022-09-21T04:25:15.727Z,5.78
2022-09-21T04:27:43.595Z,5.47
2022-09-21T04:30:12.751Z,3.75
2022-09-21T04:32:40.401Z,3.03
2022-09-21T04:35:07.924Z,3.90
2022-09-21T04:37:35.052Z,4.00
2022-09-21T04:40:02.456Z,5.13
2022-09-21T04:42:29.673Z,2.50
2022-09-21T04:44:56.774Z,4.22
2022-09-21T04:47:23.915Z,3.85
2022-09-21T04:49:52.564Z,4.00
2022-09-21T04:52:19.801Z,2.70
2022-09-21T04:54:47.584Z,5.65
2022-09-21T04:57:15.281Z,3.92
2022-09-21T04:59:42.432Z,4.90
2022-09-21T05:02:10.102Z,6.05
2022-09-21T05:04:37.352Z,6.82
2022-09-21T05:07:04.502Z,7.13
2022-09-21T05:09:50.269Z,4.82
2022-09-21T05:12:17.408Z,5.65
2022-09-21T05:14:44.995Z,4.53
2022-09-21T05:17:12.655Z,7.82
2022-09-21T05:19:40.397Z,7.75
2022-09-21T05:22:07.566Z,5.28
2022-09-21T05:24:34.681Z,9.15
2022-09-21T05:27:01.759Z,3.65
2022-09-21T05:29:29.231Z,5.30
2022-09-21T05:32:28.155Z,5.07
2022-09-21T05:35:04.467Z,3.97
2022-09-21T05:37:52.430Z,8.90
2022-09-21T05:40:20.186Z,3.88
2022-09-21T05:42:47.663Z,5.70
2022-09-21T05:45:18.892Z,8.15
2022-09-21T05:48:16.518Z,5.72
2022-09-21T05:50:47.085Z,6.15
2022-09-21T05:53:38.698Z,11.63
2022-09-21T05:56:30.212Z,10.55
2022-09-21T05:59:18.266Z,13.68
2022-09-21T06:02:16.199Z,5.18
2022-09-21T06:04:43.519Z,7.70
2022-09-21T06:07:10.717Z,5.28
2022-09-21T06:09:42.446Z,11.13
2022-09-21T06:12:11.341Z,6.75
2022-09-21T06:14:38.674Z,14.07
2022-09-21T06:17:05.927Z,14.00
2022-09-21T06:19:33.055Z,9.68
2022-09-21T06:22:00.275Z,9.65
2022-09-21T06:24:27.352Z,8.32
2022-09-21T06:26:54.491Z,9.98
2022-09-21T06:29:23.640Z,7.40
2022-09-21T06:31:51.315Z,12.25
2022-09-21T06:34:18.738Z,9.73
2022-09-21T06:36:45.893Z,6.75
2022-09-21T06:39:13.168Z,6.85
2022-09-21T06:41:40.380Z,4.78
2022-09-21T06:44:07.504Z,15.93
2022-09-21T06:46:34.626Z,7.90
2022-09-21T06:49:01.704Z,9.70
2022-09-21T06:51:28.805Z,12.82
2022-09-21T06:53:56.996Z,16.05
2022-09-21T06:56:24.958Z,13.80
2022-09-21T06:58:52.576Z,9.00
2022-09-21T07:01:19.911Z,14.02
2022-09-21T07:03:50.937Z,13.30
2022-09-21T07:06:18.662Z,13.07
2022-09-21T07:11:34.325Z,9.50
2022-09-21T07:14:01.501Z,8.35
2022-09-21T07:16:28.622Z,10.43
2022-09-21T07:18:56.890Z,10.52
2022-09-21T07:21:24.131Z,13.23
2022-09-21T07:23:51.262Z,8.75
2022-09-21T07:26:18.426Z,7.07
2022-09-21T07:28:45.494Z,9.43
2022-09-21T07:31:14.627Z,13.45
2022-09-21T07:33:42.568Z,9.23
2022-09-21T07:36:10.756Z,6.72
2022-09-21T07:38:40.035Z,9.95
2022-09-21T07:41:07.844Z,9.00
2022-09-21T07:43:35.039Z,11.20
2022-09-21T07:46:02.320Z,13.40
2022-09-21T07:48:31.018Z,8.93
2022-09-21T07:51:04.909Z,8.93
2022-09-21T07:53:36.292Z,14.90
2022-09-21T07:56:08.665Z,10.00
2022-09-21T07:58:55.211Z,9.52
2022-09-21T08:01:23.220Z,12.98
2022-09-21T08:03:51.855Z,9.88
2022-09-21T08:06:19.850Z,6.85
2022-09-21T08:08:55.083Z,12.35
2022-09-21T08:11:23.869Z,11.52
2022-09-21T08:13:55.580Z,9.35
2022-09-21T08:16:24.045Z,11.68
2022-09-21T08:18:51.679Z,14.38
2022-09-21T08:21:20.321Z,8.02
2022-09-21T08:23:49.193Z,9.82
2022-09-21T08:26:19.065Z,9.70
2022-09-21T08:28:51.126Z,7.75
2022-09-21T08:31:20.408Z,7.93
2022-09-21T08:33:48.349Z,8.27
2022-09-21T08:36:15.689Z,11.10
2022-09-21T08:38:42.849Z,7.22
2022-09-21T08:41:24.850Z,9.85
2022-09-21T08:43:52.794Z,8.35
2022-09-21T08:46:25.634Z,12.38
2022-09-21T08:48:56.632Z,6.47
2022-09-21T08:51:26.889Z,9.13
2022-09-21T08:53:57.383Z,13.48
2022-09-21T08:56:41.591Z,7.13
2022-09-21T08:59:15.391Z,7.75
2022-09-21T09:01:58.682Z,7.78
2022-09-21T09:04:44.916Z,10.48
2022-09-21T09:07:43.615Z,7.90
2022-09-21T09:10:25.744Z,9.73
2022-09-21T09:13:05.756Z,7.97
2022-09-21T09:15:56.054Z,9.98
2022-09-21T09:18:33.935Z,7.95
2022-09-21T09:21:05.223Z,6.25
2022-09-21T09:23:35.088Z,8.02
2022-09-21T09:26:06.537Z,9.45
2022-09-21T09:28:36.454Z,7.10
2022-09-21T09:31:19.561Z,8.57
2022-09-21T09:33:52.929Z,9.75
2022-09-21T09:36:34.754Z,6.70
2022-09-21T09:39:15.110Z,8.65
2022-09-21T09:42:17.382Z,7.90
2022-09-21T09:44:54.722Z,7.90
2022-09-21T09:47:43.506Z,5.53
2022-09-21T09:50:21.960Z,4.10
2022-09-21T09:52:54.852Z,5.07
2022-09-21T09:55:30.174Z,6.90
2022-09-21T09:57:58.267Z,6.10
2022-09-21T10:00:26.243Z,6.05
2022-09-21T10:02:55.274Z,5.25
2022-09-21T10:05:32.889Z,4.25
2022-09-21T10:08:00.539Z,4.80
2022-09-21T10:10:36.286Z,5.90
2022-09-21T10:13:12.650Z,5.45
2022-09-21T10:15:44.214Z,2.92
2022-09-21T10:18:19.441Z,8.30
2022-09-21T10:20:56.431Z,3.78
2022-09-21T10:23:24.614Z,3.53
2022-09-21T10:26:01.383Z,6.65
2022-09-21T10:28:28.845Z,4.60
2022-09-21T10:31:29.553Z,3.22
2022-09-21T10:34:15.274Z,3.03
2022-09-21T10:36:51.675Z,3.13
2022-09-21T10:39:25.784Z,3.47
2022-09-21T10:42:13.927Z,7.68
2022-09-21T10:44:41.906Z,4.13
2022-09-21T10:47:29.150Z,4.38
2022-09-21T10:49:58.026Z,4.25
2022-09-21T10:52:36.372Z,2.95
2022-09-21T10:55:03.674Z,4.65
2022-09-21T10:57:32.562Z,3.25
2022-09-21T11:00:19.221Z,6.47
2022-09-21T11:02:48.093Z,9.57
2022-09-21T11:05:29.713Z,10.65
2022-09-21T11:08:19.242Z,3.97
2022-09-21T11:10:50.533Z,4.03
2022-09-21T11:13:25.630Z,4.93
2022-09-21T11:16:32.486Z,2.05
2022-09-21T11:19:47.914Z,5.00
2022-09-21T11:22:57.746Z,2.97
2022-09-21T11:25:44.029Z,1.17
2022-09-21T11:28:22.148Z,4.55
2022-09-21T11:31:01.844Z,2.05
2022-09-21T11:34:06.534Z,1.60
2022-09-21T11:36:57.505Z,4.28
2022-09-21T11:39:35.654Z,3.92
2022-09-21T11:42:11.060Z,7.55
2022-09-21T11:47:26.684Z,3.55
2022-09-21T11:50:26.276Z,5.20
2022-09-21T11:53:25.580Z,3.03
2022-09-21T11:56:15.081Z,1.20
2022-09-21T11:58:58.912Z,1.90
2022-09-21T12:01:58.235Z,3.67
2022-09-21T12:04:34.978Z,4.10
2022-09-21T12:07:14.105Z,1.48
2022-09-21T12:09:52.978Z,1.33
2022-09-21T12:12:31.977Z,2.60
2022-09-21T12:15:18.467Z,1.27
2022-09-21T12:17:49.589Z,1.17
2022-09-21T12:20:31.581Z,6.47
2022-09-21T12:23:06.159Z,3.53
2022-09-21T12:25:37.463Z,3.57
2022-09-21T12:28:12.466Z,2.25
2022-09-21T12:30:41.940Z,1.92
2022-09-21T12:33:45.274Z,3.30
2022-09-21T12:36:41.132Z,2.00
2022-09-21T12:39:27.629Z,2.20
2022-09-21T12:42:01.993Z,4.63
2022-09-21T12:44:51.808Z,1.45
2022-09-21T12:48:06.185Z,4.07
2022-09-21T12:50:44.529Z,4.80
2022-09-21T12:53:18.853Z,4.10
2022-09-21T12:56:01.177Z,1.50
2022-09-21T12:58:50.655Z,2.50
2022-09-21T13:01:17.746Z,3.08
2022-09-21T13:03:55.091Z,1.85
2022-09-21T13:06:34.438Z,5.70
2022-09-21T13:09:03.357Z,4.57
2022-09-21T13:11:33.060Z,1.55
2022-09-21T13:14:02.248Z,2.03
2022-09-21T13:16:34.751Z,2.05
2022-09-21T13:19:24.057Z,0.50
2022-09-21T13:22:19.914Z,1.55
2022-09-21T13:25:18.378Z,1.52
2022-09-21T13:28:13.031Z,2.40
2022-09-21T13:30:41.477Z,1.42
2022-09-21T13:33:21.005Z,3.15
2022-09-21T13:36:05.134Z,1.65
2022-09-21T13:38:41.132Z,3.83
2022-09-21T13:41:13.152Z,1.95
2022-09-21T13:44:01.139Z,2.30
2022-09-21T13:46:37.133Z,5.88
2022-09-21T13:49:10.462Z,2.60
2022-09-21T13:52:03.076Z,4.20
2022-09-21T13:54:34.336Z,1.27
2022-09-21T13:57:14.980Z,2.05
2022-09-21T13:59:43.850Z,3.70
2022-09-21T14:02:32.507Z,3.28
2022-09-21T14:05:07.236Z,1.33
2022-09-21T14:07:34.776Z,2.22
2022-09-21T14:10:06.073Z,1.58
2022-09-21T14:12:45.689Z,1.88
2022-09-21T14:15:19.178Z,0.95
2022-09-21T14:18:16.428Z,0.88
2022-09-21T14:21:08.245Z,2.28
2022-09-21T14:23:37.316Z,1.05
2022-09-21T14:26:41.403Z,2.65
2022-09-21T14:29:17.496Z,0.70
2022-09-21T14:31:44.760Z,1.73
2022-09-21T14:34:17.575Z,2.10
2022-09-21T14:36:47.548Z,2.05
2022-09-21T14:39:29.117Z,1.13
2022-09-21T14:41:59.063Z,2.00
2022-09-21T14:44:32.187Z,0.90
2022-09-21T14:47:02.239Z,1.08
2022-09-21T14:50:07.045Z,1.42
2022-09-21T14:52:49.500Z,1.23
2022-09-21T14:55:27.840Z,2.47
2022-09-21T14:58:33.935Z,0.63
2022-09-21T15:01:23.080Z,0.88
2022-09-21T15:04:20.274Z,1.50
2022-09-21T15:07:39.536Z,2.67
2022-09-21T15:11:00.309Z,1.23
2022-09-21T15:14:04.732Z,1.42
2022-09-21T15:16:38.092Z,2.88
2022-09-21T15:19:18.904Z,1.48
2022-09-21T15:21:48.379Z,4.07
2022-09-21T15:24:21.325Z,2.13
2022-09-21T15:26:49.527Z,3.28
2022-09-21T15:29:27.943Z,0.90
2022-09-21T15:31:55.430Z,0.75
2022-09-21T15:34:23.444Z,1.70
2022-09-21T15:36:52.039Z,1.58
2022-09-21T15:39:30.290Z,0.65
2022-09-21T15:42:22.888Z,0.90
2022-09-21T15:44:55.153Z,2.92
2022-09-21T15:47:23.325Z,0.98
2022-09-21T15:49:52.623Z,1.17
2022-09-21T15:52:31.555Z,1.33
2022-09-21T15:55:02.739Z,0.88
2022-09-21T15:57:39.184Z,2.10
2022-09-21T16:00:38.713Z,1.05
2022-09-21T16:03:19.084Z,1.48
2022-09-21T16:05:48.880Z,1.13
2022-09-21T16:08:34.424Z,0.85
2022-09-21T16:11:26.169Z,2.42
2022-09-21T16:14:29.802Z,1.02
2022-09-21T16:17:09.158Z,1.50
2022-09-21T16:19:51.071Z,2.28
2022-09-21T16:22:20.984Z,1.75
2022-09-21T16:24:51.894Z,2.75
2022-09-21T16:27:20.907Z,1.83
2022-09-21T16:29:49.776Z,3.00
2022-09-21T16:32:26.406Z,3.88
2022-09-21T16:34:54.226Z,3.90
2022-09-21T16:37:28.766Z,1.35
2022-09-21T16:39:57.948Z,1.52
2022-09-21T16:42:31.221Z,2.05
2022-09-21T16:44:59.036Z,3.25
2022-09-21T16:47:27.354Z,1.70
2022-09-21T16:49:57.042Z,1.98
2022-09-21T16:52:24.196Z,1.70
2022-09-21T16:54:52.052Z,1.60
2022-09-21T16:57:19.155Z,2.60
2022-09-21T16:59:46.495Z,2.30
2022-09-21T17:02:15.165Z,3.22
2022-09-21T17:04:42.604Z,4.70
2022-09-21T17:07:13.535Z,1.50
2022-09-21T17:09:44.356Z,2.80
2022-09-21T17:12:14.886Z,4.93
2022-09-21T17:14:46.689Z,2.38
2022-09-21T17:17:19.591Z,4.63
2022-09-21T17:19:49.906Z,4.28
2022-09-21T17:22:18.180Z,3.42
2022-09-21T17:24:51.305Z,3.05
2022-09-21T17:27:24.305Z,2.70
2022-09-21T17:29:53.624Z,5.47
2022-09-21T17:32:22.960Z,4.13
2022-09-21T17:35:17.431Z,3.92
2022-09-21T17:37:45.073Z,6.05
2022-09-21T17:40:13.110Z,7.15
2022-09-21T17:42:42.429Z,9.55
2022-09-21T17:45:21.269Z,8.48
2022-09-21T17:47:50.336Z,8.48
2022-09-21T17:50:23.090Z,7.38
2022-09-21T17:53:09.163Z,4.50
2022-09-21T17:55:36.825Z,9.38
2022-09-21T17:58:51.520Z,6.85
2022-09-21T18:01:21.441Z,7.65
2022-09-21T18:03:49.069Z,7.15
2022-09-21T18:06:16.873Z,7.70
2022-09-21T18:08:44.124Z,8.07
2022-09-21T18:11:33.274Z,7.80
2022-09-21T18:14:21.441Z,8.70
2022-09-21T18:17:21.806Z,5.40
2022-09-21T18:20:05.311Z,6.53
2022-09-21T18:22:58.499Z,5.32
2022-09-21T18:25:33.208Z,5.82
2022-09-21T18:28:06.786Z,3.58
2022-09-21T18:30:37.096Z,4.00
2022-09-21T18:33:20.935Z,5.95
2022-09-21T18:36:26.209Z,6.88
2022-09-21T18:39:06.299Z,4.57
2022-09-21T18:41:43.613Z,6.28
2022-09-21T18:44:45.842Z,4.85
2022-09-21T18:47:48.606Z,5.03
2022-09-21T18:50:22.240Z,5.20
2022-09-21T18:53:16.793Z,10.65
2022-09-21T18:55:44.987Z,5.65
2022-09-21T18:58:12.188Z,8.50
2022-09-21T19:00:39.575Z,4.45
2022-09-21T19:03:19.340Z,4.70
2022-09-21T19:06:07.206Z,7.57
2022-09-21T19:08:38.926Z,6.70
2022-09-21T19:11:19.664Z,5.72
2022-09-21T19:14:05.740Z,4.75
2022-09-21T19:16:35.350Z,6.43
2022-09-21T19:19:17.618Z,4.55
2022-09-21T19:21:57.371Z,4.15
2022-09-21T19:24:31.807Z,3.42
2022-09-21T19:27:01.908Z,4.18
2022-09-21T19:29:41.228Z,5.57
2022-09-21T19:32:14.369Z,3.53
2022-09-21T19:34:41.662Z,7.72
2022-09-21T19:37:09.453Z,4.57
2022-09-21T19:39:37.586Z,5.90
2022-09-21T19:42:17.024Z,3.83
2022-09-21T19:45:11.464Z,7.72
2022-09-21T19:47:50.086Z,7.47
2022-09-21T19:50:18.682Z,5.07
2022-09-21T19:52:46.126Z,5.10
2022-09-21T19:55:37.052Z,4.68
2022-09-21T19:58:24.093Z,8.25
2022-09-21T20:00:53.696Z,6.70
2022-09-21T20:03:34.414Z,6.63
2022-09-21T20:06:04.580Z,4.28
2022-09-21T20:08:42.857Z,5.25
2022-09-21T20:11:17.383Z,6.13
2022-09-21T20:14:03.046Z,7.75
2022-09-21T20:16:53.479Z,5.53
2022-09-21T20:19:48.230Z,5.93
2022-09-21T20:22:24.242Z,4.85
2022-09-21T20:24:51.263Z,4.78
2022-09-21T20:27:27.511Z,7.80
2022-09-21T20:29:54.588Z,5.40
2022-09-21T20:32:22.334Z,5.68
2022-09-21T20:34:50.268Z,6.43
2022-09-21T20:37:17.370Z,7.10
2022-09-21T20:39:44.643Z,4.40
2022-09-21T20:42:23.621Z,7.97
2022-09-21T20:44:51.505Z,8.32
2022-09-21T20:47:20.180Z,9.77
2022-09-21T20:49:48.110Z,7.70
2022-09-21T20:52:17.911Z,6.43
2022-09-21T20:54:49.031Z,9.80
2022-09-21T20:57:17.712Z,6.35
2022-09-21T20:59:44.802Z,8.48
2022-09-21T21:02:13.056Z,9.35
2022-09-21T21:04:40.379Z,8.90
2022-09-21T21:07:07.614Z,6.53
2022-09-21T21:09:35.679Z,6.47
2022-09-21T21:12:02.770Z,6.82
2022-09-21T21:14:29.943Z,6.07
2022-09-21T21:16:57.170Z,7.32
2022-09-21T21:19:24.435Z,7.88
2022-09-21T21:21:51.495Z,6.70
2022-09-21T21:24:37.393Z,6.68
2022-09-21T21:27:04.636Z,6.72
2022-09-21T21:29:32.481Z,9.27
2022-09-21T21:32:00.121Z,9.05
2022-09-21T21:34:27.497Z,6.80
2022-09-21T21:36:55.169Z,7.68
2022-09-21T21:39:22.521Z,6.78
2022-09-21T21:41:49.668Z,7.38
2022-09-21T21:44:16.858Z,6.65
2022-09-21T21:46:43.974Z,10.02
2022-09-21T21:49:11.124Z,7.07
2022-09-21T21:51:38.230Z,7.20
2022-09-21T21:54:05.421Z,7.82
2022-09-21T21:56:32.585Z,6.88
2022-09-21T21:58:59.675Z,7.68
2022-09-21T22:01:29.320Z,7.93
2022-09-21T22:04:01.030Z,6.75
2022-09-21T22:06:29.785Z,6.60
2022-09-21T22:08:57.502Z,6.75
2022-09-21T22:11:26.107Z,5.10
2022-09-21T22:13:54.964Z,6.07
2022-09-21T22:16:23.834Z,5.75
2022-09-21T22:18:52.084Z,7.80
2022-09-21T22:21:26.101Z,5.43
2022-09-21T22:23:54.443Z,6.28
2022-09-21T22:26:22.609Z,5.72
2022-09-21T22:28:52.894Z,6.80
2022-09-21T22:31:23.094Z,5.65
2022-09-21T22:33:50.246Z,6.47
2022-09-21T22:36:18.847Z,7.35
2022-09-21T22:38:46.601Z,6.53
2022-09-21T22:41:22.083Z,6.00
2022-09-21T22:43:51.510Z,5.75
2022-09-21T22:46:19.047Z,5.68
2022-09-21T22:48:46.756Z,5.28
2022-09-21T22:51:14.643Z,5.72
2022-09-21T22:53:42.076Z,4.63
2022-09-21T22:56:16.350Z,3.80
2022-09-21T22:58:45.512Z,6.55
2022-09-21T23:01:21.116Z,4.35
2022-09-21T23:06:18.156Z,3.63
2022-09-21T23:08:52.939Z,4.57
2022-09-21T23:11:23.122Z,4.32
2022-09-21T23:13:50.245Z,4.28
2022-09-21T23:16:18.302Z,3.97
2022-09-21T23:18:45.869Z,2.60
2022-09-21T23:21:14.569Z,3.30
2022-09-21T23:23:42.184Z,4.65
2022-09-21T23:26:14.870Z,4.05
2022-09-21T23:28:44.738Z,4.72
2022-09-21T23:31:14.122Z,7.82
2022-09-21T23:33:43.360Z,2.85
2022-09-21T23:36:12.669Z,5.30
2022-09-21T23:38:40.290Z,4.40
2022-09-21T23:41:09.765Z,4.30
2022-09-21T23:43:38.032Z,3.63
2022-09-21T23:46:06.116Z,3.72
2022-09-21T23:48:33.815Z,4.53
2022-09-21T23:51:01.055Z,5.50
2022-09-21T23:53:28.666Z,4.22
2022-09-21T23:55:56.199Z,4.43
2022-09-21T23:58:24.326Z,5.57
